sensor_id;sensor_type;location;lat;lon;timestamp;temperature;humidity
65582;DHT22;52231;40.090;18.348;2022-12-07T00:01:39;10.40;93.60
65582;DHT22;52231;40.090;18.348;2022-12-07T00:04:11;10.40;93.50
65582;DHT22;52231;40.090;18.348;2022-12-07T00:06:44;10.30;93.50
65582;DHT22;52231;40.090;18.348;2022-12-07T00:09:15;10.30;93.50
65582;DHT22;52231;40.090;18.348;2022-12-07T00:11:44;10.30;93.50
65582;DHT22;52231;40.090;18.348;2022-12-07T00:14:16;10.40;93.60
65582;DHT22;52231;40.090;18.348;2022-12-07T00:16:44;10.40;93.60
65582;DHT22;52231;40.090;18.348;2022-12-07T00:19:13;10.40;93.70
65582;DHT22;52231;40.090;18.348;2022-12-07T00:21:41;10.40;93.70
65582;DHT22;52231;40.090;18.348;2022-12-07T00:24:11;10.40;93.70
65582;DHT22;52231;40.090;18.348;2022-12-07T00:26:40;10.40;93.80
65582;DHT22;52231;40.090;18.348;2022-12-07T00:29:18;10.40;93.80
65582;DHT22;52231;40.090;18.348;2022-12-07T00:31:47;10.40;93.80
65582;DHT22;52231;40.090;18.348;2022-12-07T00:34:18;10.40;93.80
65582;DHT22;52231;40.090;18.348;2022-12-07T00:36:46;10.40;93.80
65582;DHT22;52231;40.090;18.348;2022-12-07T00:39:14;10.30;93.80
65582;DHT22;52231;40.090;18.348;2022-12-07T00:41:43;10.20;93.80
65582;DHT22;52231;40.090;18.348;2022-12-07T00:44:11;10.20;93.70
65582;DHT22;52231;40.090;18.348;2022-12-07T00:46:39;10.10;93.70
65582;DHT22;52231;40.090;18.348;2022-12-07T00:49:07;10.00;93.70
65582;DHT22;52231;40.090;18.348;2022-12-07T00:51:39;10.00;93.60
65582;DHT22;52231;40.090;18.348;2022-12-07T00:54:07;9.90;93.70
65582;DHT22;52231;40.090;18.348;2022-12-07T00:56:35;10.00;93.70
65582;DHT22;52231;40.090;18.348;2022-12-07T00:59:04;9.90;93.70
65582;DHT22;52231;40.090;18.348;2022-12-07T01:01:34;9.90;93.70
65582;DHT22;52231;40.090;18.348;2022-12-07T01:04:04;9.90;93.70
65582;DHT22;52231;40.090;18.348;2022-12-07T01:06:32;9.90;93.80
65582;DHT22;52231;40.090;18.348;2022-12-07T01:09:01;9.90;93.80
65582;DHT22;52231;40.090;18.348;2022-12-07T01:11:29;9.80;93.80
65582;DHT22;52231;40.090;18.348;2022-12-07T01:13:58;9.80;93.80
65582;DHT22;52231;40.090;18.348;2022-12-07T01:16:30;9.80;93.80
65582;DHT22;52231;40.090;18.348;2022-12-07T01:19:00;9.80;93.80
65582;DHT22;52231;40.090;18.348;2022-12-07T01:21:33;9.80;93.80
65582;DHT22;52231;40.090;18.348;2022-12-07T01:24:08;9.70;93.70
65582;DHT22;52231;40.090;18.348;2022-12-07T01:26:37;9.60;93.60
65582;DHT22;52231;40.090;18.348;2022-12-07T01:29:05;9.50;93.50
65582;DHT22;52231;40.090;18.348;2022-12-07T01:31:33;9.40;93.50
65582;DHT22;52231;40.090;18.348;2022-12-07T01:34:02;9.30;93.40
65582;DHT22;52231;40.090;18.348;2022-12-07T01:36:33;9.30;93.40
65582;DHT22;52231;40.090;18.348;2022-12-07T01:39:06;9.30;93.50
65582;DHT22;52231;40.090;18.348;2022-12-07T01:41:37;9.30;93.50
65582;DHT22;52231;40.090;18.348;2022-12-07T01:46:49;9.30;93.60
65582;DHT22;52231;40.090;18.348;2022-12-07T01:51:51;9.40;93.70
65582;DHT22;52231;40.090;18.348;2022-12-07T01:54:21;9.40;93.70
65582;DHT22;52231;40.090;18.348;2022-12-07T01:56:50;9.50;93.70
65582;DHT22;52231;40.090;18.348;2022-12-07T01:59:21;9.50;93.60
65582;DHT22;52231;40.090;18.348;2022-12-07T02:01:51;9.40;93.60
65582;DHT22;52231;40.090;18.348;2022-12-07T02:04:20;9.30;93.60
65582;DHT22;52231;40.090;18.348;2022-12-07T02:06:50;9.30;93.50
65582;DHT22;52231;40.090;18.348;2022-12-07T02:09:18;9.30;93.50
65582;DHT22;52231;40.090;18.348;2022-12-07T02:11:47;9.30;93.50
65582;DHT22;52231;40.090;18.348;2022-12-07T02:14:15;9.30;93.50
65582;DHT22;52231;40.090;18.348;2022-12-07T02:28:12;9.10;93.50
65582;DHT22;52231;40.090;18.348;2022-12-07T02:30:43;9.00;93.50
65582;DHT22;52231;40.090;18.348;2022-12-07T02:33:19;9.00;93.50
65582;DHT22;52231;40.090;18.348;2022-12-07T02:36:10;9.00;93.50
65582;DHT22;52231;40.090;18.348;2022-12-07T02:39:06;8.90;93.40
65582;DHT22;52231;40.090;18.348;2022-12-07T02:41:43;8.80;93.40
65582;DHT22;52231;40.090;18.348;2022-12-07T02:44:20;8.80;93.40
65582;DHT22;52231;40.090;18.348;2022-12-07T02:46:54;8.80;93.40
65582;DHT22;52231;40.090;18.348;2022-12-07T02:49:24;8.70;93.40
65582;DHT22;52231;40.090;18.348;2022-12-07T02:51:53;8.60;93.30
65582;DHT22;52231;40.090;18.348;2022-12-07T02:54:22;8.50;93.30
65582;DHT22;52231;40.090;18.348;2022-12-07T02:57:48;8.50;93.20
65582;DHT22;52231;40.090;18.348;2022-12-07T03:00:09;8.40;93.20
65582;DHT22;52231;40.090;18.348;2022-12-07T03:11:12;8.20;93.20
65582;DHT22;52231;40.090;18.348;2022-12-07T03:16:45;8.20;93.20
65582;DHT22;52231;40.090;18.348;2022-12-07T03:19:18;8.10;93.20
65582;DHT22;52231;40.090;18.348;2022-12-07T03:22:01;8.10;93.20
65582;DHT22;52231;40.090;18.348;2022-12-07T03:24:36;8.10;93.20
65582;DHT22;52231;40.090;18.348;2022-12-07T03:27:12;8.10;93.20
65582;DHT22;52231;40.090;18.348;2022-12-07T03:29:47;8.00;93.20
65582;DHT22;52231;40.090;18.348;2022-12-07T03:32:37;8.10;93.30
65582;DHT22;52231;40.090;18.348;2022-12-07T03:35:09;8.20;93.40
65582;DHT22;52231;40.090;18.348;2022-12-07T03:42:53;8.30;93.60
65582;DHT22;52231;40.090;18.348;2022-12-07T03:45:25;8.30;93.70
65582;DHT22;52231;40.090;18.348;2022-12-07T03:48:28;8.30;93.70
65582;DHT22;52231;40.090;18.348;2022-12-07T03:51:13;8.30;93.70
65582;DHT22;52231;40.090;18.348;2022-12-07T03:56:56;8.30;93.70
65582;DHT22;52231;40.090;18.348;2022-12-07T03:59:25;8.20;93.70
65582;DHT22;52231;40.090;18.348;2022-12-07T04:01:56;8.20;93.70
65582;DHT22;52231;40.090;18.348;2022-12-07T04:04:25;8.20;93.60
65582;DHT22;52231;40.090;18.348;2022-12-07T04:06:53;8.10;93.50
65582;DHT22;52231;40.090;18.348;2022-12-07T04:09:21;8.00;93.40
65582;DHT22;52231;40.090;18.348;2022-12-07T04:11:50;8.00;93.30
65582;DHT22;52231;40.090;18.348;2022-12-07T04:14:18;7.90;93.20
65582;DHT22;52231;40.090;18.348;2022-12-07T04:16:52;8.00;93.20
65582;DHT22;52231;40.090;18.348;2022-12-07T04:19:23;8.00;93.20
65582;DHT22;52231;40.090;18.348;2022-12-07T04:21:52;8.10;93.30
65582;DHT22;52231;40.090;18.348;2022-12-07T04:24:20;8.20;93.40
65582;DHT22;52231;40.090;18.348;2022-12-07T04:26:49;8.20;93.40
65582;DHT22;52231;40.090;18.348;2022-12-07T04:29:18;8.10;93.50
65582;DHT22;52231;40.090;18.348;2022-12-07T04:31:47;8.10;93.50
65582;DHT22;52231;40.090;18.348;2022-12-07T04:34:16;8.00;93.50
65582;DHT22;52231;40.090;18.348;2022-12-07T04:36:45;8.00;93.50
65582;DHT22;52231;40.090;18.348;2022-12-07T04:39:19;8.00;93.50
65582;DHT22;52231;40.090;18.348;2022-12-07T04:41:48;8.00;93.50
65582;DHT22;52231;40.090;18.348;2022-12-07T04:44:17;8.00;93.50
65582;DHT22;52231;40.090;18.348;2022-12-07T04:46:45;8.00;93.50
65582;DHT22;52231;40.090;18.348;2022-12-07T04:49:32;8.00;93.60
65582;DHT22;52231;40.090;18.348;2022-12-07T04:52:18;8.00;93.70
65582;DHT22;52231;40.090;18.348;2022-12-07T04:54:47;8.00;93.70
65582;DHT22;52231;40.090;18.348;2022-12-07T04:57:15;8.10;93.70
65582;DHT22;52231;40.090;18.348;2022-12-07T04:59:43;8.10;93.80
65582;DHT22;52231;40.090;18.348;2022-12-07T05:02:12;8.20;93.80
65582;DHT22;52231;40.090;18.348;2022-12-07T05:04:40;8.30;93.80
65582;DHT22;52231;40.090;18.348;2022-12-07T05:07:08;8.20;93.80
65582;DHT22;52231;40.090;18.348;2022-12-07T05:09:36;8.10;93.80
65582;DHT22;52231;40.090;18.348;2022-12-07T05:12:05;8.00;93.70
65582;DHT22;52231;40.090;18.348;2022-12-07T05:14:33;7.80;93.70
65582;DHT22;52231;40.090;18.348;2022-12-07T05:17:01;7.80;93.60
65582;DHT22;52231;40.090;18.348;2022-12-07T05:19:29;7.70;93.60
65582;DHT22;52231;40.090;18.348;2022-12-07T05:21:57;7.70;93.50
65582;DHT22;52231;40.090;18.348;2022-12-07T05:24:25;7.60;93.50
65582;DHT22;52231;40.090;18.348;2022-12-07T05:26:53;7.60;93.50
65582;DHT22;52231;40.090;18.348;2022-12-07T05:29:21;7.60;93.50
65582;DHT22;52231;40.090;18.348;2022-12-07T05:31:50;7.60;93.50
65582;DHT22;52231;40.090;18.348;2022-12-07T05:34:18;7.60;93.60
65582;DHT22;52231;40.090;18.348;2022-12-07T05:36:46;7.60;93.60
65582;DHT22;52231;40.090;18.348;2022-12-07T05:39:14;7.60;93.50
65582;DHT22;52231;40.090;18.348;2022-12-07T05:41:42;7.50;93.50
65582;DHT22;52231;40.090;18.348;2022-12-07T05:44:28;7.40;93.40
65582;DHT22;52231;40.090;18.348;2022-12-07T05:46:56;7.50;93.40
65582;DHT22;52231;40.090;18.348;2022-12-07T05:49:24;7.40;93.40
65582;DHT22;52231;40.090;18.348;2022-12-07T05:51:52;7.40;93.40
65582;DHT22;52231;40.090;18.348;2022-12-07T05:54:21;7.40;93.50
65582;DHT22;52231;40.090;18.348;2022-12-07T05:56:49;7.40;93.50
65582;DHT22;52231;40.090;18.348;2022-12-07T05:59:17;7.40;93.50
65582;DHT22;52231;40.090;18.348;2022-12-07T06:02:01;7.40;93.50
65582;DHT22;52231;40.090;18.348;2022-12-07T06:04:35;7.50;93.50
65582;DHT22;52231;40.090;18.348;2022-12-07T06:07:04;7.40;93.50
65582;DHT22;52231;40.090;18.348;2022-12-07T06:09:52;7.50;93.50
65582;DHT22;52231;40.090;18.348;2022-12-07T06:12:20;7.50;93.50
65582;DHT22;52231;40.090;18.348;2022-12-07T06:15:24;7.50;93.60
65582;DHT22;52231;40.090;18.348;2022-12-07T06:17:52;7.70;93.60
65582;DHT22;52231;40.090;18.348;2022-12-07T06:20:21;7.80;93.70
65582;DHT22;52231;40.090;18.348;2022-12-07T06:22:49;7.90;93.70
65582;DHT22;52231;40.090;18.348;2022-12-07T06:25:17;8.00;93.80
65582;DHT22;52231;40.090;18.348;2022-12-07T06:27:45;8.20;93.80
65582;DHT22;52231;40.090;18.348;2022-12-07T06:30:13;8.20;93.80
65582;DHT22;52231;40.090;18.348;2022-12-07T06:32:42;8.20;93.70
65582;DHT22;52231;40.090;18.348;2022-12-07T06:35:10;8.20;93.70
65582;DHT22;52231;40.090;18.348;2022-12-07T06:37:38;8.20;93.70
65582;DHT22;52231;40.090;18.348;2022-12-07T06:40:07;8.30;93.70
65582;DHT22;52231;40.090;18.348;2022-12-07T06:42:35;8.30;93.70
65582;DHT22;52231;40.090;18.348;2022-12-07T06:45:03;8.50;93.70
65582;DHT22;52231;40.090;18.348;2022-12-07T06:47:31;8.50;93.80
65582;DHT22;52231;40.090;18.348;2022-12-07T06:50:07;8.60;93.80
65582;DHT22;52231;40.090;18.348;2022-12-07T06:52:36;8.80;93.80
65582;DHT22;52231;40.090;18.348;2022-12-07T06:55:04;9.00;93.80
65582;DHT22;52231;40.090;18.348;2022-12-07T06:57:32;9.20;93.80
65582;DHT22;52231;40.090;18.348;2022-12-07T07:00:01;9.30;93.80
65582;DHT22;52231;40.090;18.348;2022-12-07T07:02:29;9.30;93.90
65582;DHT22;52231;40.090;18.348;2022-12-07T07:04:58;9.70;93.90
65582;DHT22;52231;40.090;18.348;2022-12-07T07:07:26;10.10;94.00
65582;DHT22;52231;40.090;18.348;2022-12-07T07:09:55;10.40;94.00
65582;DHT22;52231;40.090;18.348;2022-12-07T07:12:23;10.80;94.00
65582;DHT22;52231;40.090;18.348;2022-12-07T07:14:51;11.20;94.00
65582;DHT22;52231;40.090;18.348;2022-12-07T07:17:19;11.70;93.90
65582;DHT22;52231;40.090;18.348;2022-12-07T07:19:47;12.10;93.60
65582;DHT22;52231;40.090;18.348;2022-12-07T07:22:16;12.40;93.30
65582;DHT22;52231;40.090;18.348;2022-12-07T07:24:45;12.80;92.80
65582;DHT22;52231;40.090;18.348;2022-12-07T07:27:13;13.10;92.20
65582;DHT22;52231;40.090;18.348;2022-12-07T07:29:41;13.30;91.40
65582;DHT22;52231;40.090;18.348;2022-12-07T07:32:09;13.50;90.50
65582;DHT22;52231;40.090;18.348;2022-12-07T07:34:37;13.80;89.80
65582;DHT22;52231;40.090;18.348;2022-12-07T07:37:06;14.00;89.00
65582;DHT22;52231;40.090;18.348;2022-12-07T07:39:33;14.20;88.50
65582;DHT22;52231;40.090;18.348;2022-12-07T07:42:02;14.30;87.80
65582;DHT22;52231;40.090;18.348;2022-12-07T07:44:33;14.60;87.80
65582;DHT22;52231;40.090;18.348;2022-12-07T07:47:02;14.80;87.00
65582;DHT22;52231;40.090;18.348;2022-12-07T07:49:30;15.00;86.50
65582;DHT22;52231;40.090;18.348;2022-12-07T07:51:59;15.10;85.90
65582;DHT22;52231;40.090;18.348;2022-12-07T07:54:27;15.10;86.00
65582;DHT22;52231;40.090;18.348;2022-12-07T07:56:55;15.30;86.00
65582;DHT22;52231;40.090;18.348;2022-12-07T07:59:24;15.40;85.80
65582;DHT22;52231;40.090;18.348;2022-12-07T08:01:53;15.60;85.50
65582;DHT22;52231;40.090;18.348;2022-12-07T08:04:21;15.70;85.00
65582;DHT22;52231;40.090;18.348;2022-12-07T08:06:49;15.70;84.90
65582;DHT22;52231;40.090;18.348;2022-12-07T08:09:17;15.70;84.60
65582;DHT22;52231;40.090;18.348;2022-12-07T08:11:45;15.70;84.80
65582;DHT22;52231;40.090;18.348;2022-12-07T08:14:13;15.70;84.40
65582;DHT22;52231;40.090;18.348;2022-12-07T08:16:41;15.90;85.10
65582;DHT22;52231;40.090;18.348;2022-12-07T08:19:09;16.00;84.40
65582;DHT22;52231;40.090;18.348;2022-12-07T08:21:38;16.00;83.40
65582;DHT22;52231;40.090;18.348;2022-12-07T08:24:06;16.30;83.80
65582;DHT22;52231;40.090;18.348;2022-12-07T08:26:35;16.30;82.70
65582;DHT22;52231;40.090;18.348;2022-12-07T08:29:03;16.30;83.10
65582;DHT22;52231;40.090;18.348;2022-12-07T08:31:31;16.30;82.90
65582;DHT22;52231;40.090;18.348;2022-12-07T08:33:59;16.30;82.70
65582;DHT22;52231;40.090;18.348;2022-12-07T08:36:28;16.30;82.90
65582;DHT22;52231;40.090;18.348;2022-12-07T08:38:56;16.50;82.30
65582;DHT22;52231;40.090;18.348;2022-12-07T08:41:44;16.80;81.90
65582;DHT22;52231;40.090;18.348;2022-12-07T08:44:12;16.80;81.50
65582;DHT22;52231;40.090;18.348;2022-12-07T08:46:46;16.80;80.50
65582;DHT22;52231;40.090;18.348;2022-12-07T08:49:26;16.80;80.10
65582;DHT22;52231;40.090;18.348;2022-12-07T08:51:55;16.80;80.00
65582;DHT22;52231;40.090;18.348;2022-12-07T08:54:23;16.80;80.20
65582;DHT22;52231;40.090;18.348;2022-12-07T08:56:52;16.80;79.50
65582;DHT22;52231;40.090;18.348;2022-12-07T08:59:43;16.90;80.40
65582;DHT22;52231;40.090;18.348;2022-12-07T09:02:11;17.00;80.90
65582;DHT22;52231;40.090;18.348;2022-12-07T09:04:40;16.90;81.00
65582;DHT22;52231;40.090;18.348;2022-12-07T09:07:08;16.90;81.50
65582;DHT22;52231;40.090;18.348;2022-12-07T09:09:36;16.90;80.60
65582;DHT22;52231;40.090;18.348;2022-12-07T09:12:04;16.80;80.70
65582;DHT22;52231;40.090;18.348;2022-12-07T09:14:32;16.80;80.90
65582;DHT22;52231;40.090;18.348;2022-12-07T09:17:11;16.80;81.10
65582;DHT22;52231;40.090;18.348;2022-12-07T09:19:40;17.00;80.10
65582;DHT22;52231;40.090;18.348;2022-12-07T09:22:10;16.90;79.60
65582;DHT22;52231;40.090;18.348;2022-12-07T09:24:38;17.10;79.00
65582;DHT22;52231;40.090;18.348;2022-12-07T09:27:06;17.20;78.50
65582;DHT22;52231;40.090;18.348;2022-12-07T09:29:35;17.10;78.60
65582;DHT22;52231;40.090;18.348;2022-12-07T09:32:03;17.20;78.80
65582;DHT22;52231;40.090;18.348;2022-12-07T09:34:34;17.30;79.00
65582;DHT22;52231;40.090;18.348;2022-12-07T09:37:03;17.20;78.80
65582;DHT22;52231;40.090;18.348;2022-12-07T09:39:31;17.10;78.90
65582;DHT22;52231;40.090;18.348;2022-12-07T09:41:59;17.20;79.70
65582;DHT22;52231;40.090;18.348;2022-12-07T09:44:30;17.60;78.00
65582;DHT22;52231;40.090;18.348;2022-12-07T09:46:59;17.80;77.00
65582;DHT22;52231;40.090;18.348;2022-12-07T09:49:31;17.60;76.10
65582;DHT22;52231;40.090;18.348;2022-12-07T09:52:18;17.80;75.60
65582;DHT22;52231;40.090;18.348;2022-12-07T09:54:49;18.30;74.60
65582;DHT22;52231;40.090;18.348;2022-12-07T09:57:28;18.50;72.60
65582;DHT22;52231;40.090;18.348;2022-12-07T10:00:03;18.40;71.20
65582;DHT22;52231;40.090;18.348;2022-12-07T10:03:01;18.30;72.10
65582;DHT22;52231;40.090;18.348;2022-12-07T10:05:39;18.30;73.30
65582;DHT22;52231;40.090;18.348;2022-12-07T10:08:13;18.00;73.10
65582;DHT22;52231;40.090;18.348;2022-12-07T10:10:45;17.60;73.40
65582;DHT22;52231;40.090;18.348;2022-12-07T10:13:17;17.40;73.40
65582;DHT22;52231;40.090;18.348;2022-12-07T10:15:57;17.10;73.90
65582;DHT22;52231;40.090;18.348;2022-12-07T10:18:36;16.80;74.90
65582;DHT22;52231;40.090;18.348;2022-12-07T10:21:23;16.50;76.00
65582;DHT22;52231;40.090;18.348;2022-12-07T10:24:08;16.20;77.60
65582;DHT22;52231;40.090;18.348;2022-12-07T10:29:22;15.80;79.80
65582;DHT22;52231;40.090;18.348;2022-12-07T10:34:43;15.80;81.20
65582;DHT22;52231;40.090;18.348;2022-12-07T10:37:40;16.30;81.20
65582;DHT22;52231;40.090;18.348;2022-12-07T10:40:26;16.60;79.70
65582;DHT22;52231;40.090;18.348;2022-12-07T10:46:16;17.20;78.20
65582;DHT22;52231;40.090;18.348;2022-12-07T10:51:46;17.20;78.90
65582;DHT22;52231;40.090;18.348;2022-12-07T10:54:40;17.20;78.70
65582;DHT22;52231;40.090;18.348;2022-12-07T11:00:21;17.40;79.40
65582;DHT22;52231;40.090;18.348;2022-12-07T11:03:24;17.40;78.80
65582;DHT22;52231;40.090;18.348;2022-12-07T11:08:59;17.50;78.40
65582;DHT22;52231;40.090;18.348;2022-12-07T11:14:28;17.40;78.90
65582;DHT22;52231;40.090;18.348;2022-12-07T11:16:57;17.40;79.30
65582;DHT22;52231;40.090;18.348;2022-12-07T11:25:52;17.30;79.90
65582;DHT22;52231;40.090;18.348;2022-12-07T11:34:04;17.60;78.30
65582;DHT22;52231;40.090;18.348;2022-12-07T11:36:49;17.60;78.70
65582;DHT22;52231;40.090;18.348;2022-12-07T11:41:52;17.50;78.90
65582;DHT22;52231;40.090;18.348;2022-12-07T11:47:45;17.20;79.70
65582;DHT22;52231;40.090;18.348;2022-12-07T11:51:06;17.10;80.40
65582;DHT22;52231;40.090;18.348;2022-12-07T11:56:20;16.90;81.50
65582;DHT22;52231;40.090;18.348;2022-12-07T11:58:51;16.90;81.70
65582;DHT22;52231;40.090;18.348;2022-12-07T12:06:42;17.30;80.00
65582;DHT22;52231;40.090;18.348;2022-12-07T12:15:41;17.00;79.60
65582;DHT22;52231;40.090;18.348;2022-12-07T12:21:09;17.10;80.20
65582;DHT22;52231;40.090;18.348;2022-12-07T12:26:08;17.10;80.50
65582;DHT22;52231;40.090;18.348;2022-12-07T12:31:39;17.20;79.60
65582;DHT22;52231;40.090;18.348;2022-12-07T12:34:37;17.30;79.10
65582;DHT22;52231;40.090;18.348;2022-12-07T12:45:23;17.40;79.00
65582;DHT22;52231;40.090;18.348;2022-12-07T12:48:35;17.60;78.70
65582;DHT22;52231;40.090;18.348;2022-12-07T12:51:37;17.50;77.70
65582;DHT22;52231;40.090;18.348;2022-12-07T12:54:15;17.60;78.20
65582;DHT22;52231;40.090;18.348;2022-12-07T12:57:35;17.60;77.60
65582;DHT22;52231;40.090;18.348;2022-12-07T13:15:49;16.90;80.90
65582;DHT22;52231;40.090;18.348;2022-12-07T13:20:57;17.00;81.60
65582;DHT22;52231;40.090;18.348;2022-12-07T13:29:10;16.90;81.30
65582;DHT22;52231;40.090;18.348;2022-12-07T13:31:52;16.80;80.90
65582;DHT22;52231;40.090;18.348;2022-12-07T13:37:29;16.80;80.90
65582;DHT22;52231;40.090;18.348;2022-12-07T13:40:22;16.70;80.80
65582;DHT22;52231;40.090;18.348;2022-12-07T13:43:00;16.50;81.10
65582;DHT22;52231;40.090;18.348;2022-12-07T13:46:09;16.50;81.50
65582;DHT22;52231;40.090;18.348;2022-12-07T13:48:51;16.40;82.00
65582;DHT22;52231;40.090;18.348;2022-12-07T13:54:22;16.50;82.00
65582;DHT22;52231;40.090;18.348;2022-12-07T13:57:06;16.40;82.50
65582;DHT22;52231;40.090;18.348;2022-12-07T13:59:40;16.30;82.60
65582;DHT22;52231;40.090;18.348;2022-12-07T14:02:18;16.10;82.60
65582;DHT22;52231;40.090;18.348;2022-12-07T14:05:05;16.10;82.90
65582;DHT22;52231;40.090;18.348;2022-12-07T14:16:37;15.80;82.90
65582;DHT22;52231;40.090;18.348;2022-12-07T14:19:41;15.70;83.10
65582;DHT22;52231;40.090;18.348;2022-12-07T14:23:00;15.70;83.30
65582;DHT22;52231;40.090;18.348;2022-12-07T14:25:53;15.60;83.60
65582;DHT22;52231;40.090;18.348;2022-12-07T14:28:36;15.60;83.80
65582;DHT22;52231;40.090;18.348;2022-12-07T14:31:18;15.40;84.20
65582;DHT22;52231;40.090;18.348;2022-12-07T14:33:59;15.40;84.40
65582;DHT22;52231;40.090;18.348;2022-12-07T14:36:28;15.30;84.60
65582;DHT22;52231;40.090;18.348;2022-12-07T14:39:11;15.30;84.70
65582;DHT22;52231;40.090;18.348;2022-12-07T14:41:40;15.10;84.80
65582;DHT22;52231;40.090;18.348;2022-12-07T14:44:40;15.10;85.00
65582;DHT22;52231;40.090;18.348;2022-12-07T14:47:12;15.00;85.10
65582;DHT22;52231;40.090;18.348;2022-12-07T14:50:00;14.90;85.10
65582;DHT22;52231;40.090;18.348;2022-12-07T14:52:29;14.80;84.90
65582;DHT22;52231;40.090;18.348;2022-12-07T14:55:25;14.70;85.00
65582;DHT22;52231;40.090;18.348;2022-12-07T14:57:53;14.60;85.20
65582;DHT22;52231;40.090;18.348;2022-12-07T15:00:22;14.50;85.20
65582;DHT22;52231;40.090;18.348;2022-12-07T15:02:51;14.50;85.20
65582;DHT22;52231;40.090;18.348;2022-12-07T15:05:20;14.40;85.30
65582;DHT22;52231;40.090;18.348;2022-12-07T15:07:50;14.30;85.50
65582;DHT22;52231;40.090;18.348;2022-12-07T15:10:24;14.20;85.60
65582;DHT22;52231;40.090;18.348;2022-12-07T15:12:59;14.20;85.80
65582;DHT22;52231;40.090;18.348;2022-12-07T15:15:48;14.10;86.00
65582;DHT22;52231;40.090;18.348;2022-12-07T15:18:35;14.00;86.30
65582;DHT22;52231;40.090;18.348;2022-12-07T15:21:03;13.90;86.60
65582;DHT22;52231;40.090;18.348;2022-12-07T15:23:31;13.80;86.80
65582;DHT22;52231;40.090;18.348;2022-12-07T15:26:00;13.80;87.00
65582;DHT22;52231;40.090;18.348;2022-12-07T15:28:28;13.80;87.20
65582;DHT22;52231;40.090;18.348;2022-12-07T15:30:56;13.70;87.30
65582;DHT22;52231;40.090;18.348;2022-12-07T15:33:24;13.60;87.60
65582;DHT22;52231;40.090;18.348;2022-12-07T15:35:52;13.50;87.80
65582;DHT22;52231;40.090;18.348;2022-12-07T15:38:20;13.50;88.00
65582;DHT22;52231;40.090;18.348;2022-12-07T15:40:55;13.50;88.30
65582;DHT22;52231;40.090;18.348;2022-12-07T15:43:23;13.30;88.30
65582;DHT22;52231;40.090;18.348;2022-12-07T15:46:10;13.30;88.40
65582;DHT22;52231;40.090;18.348;2022-12-07T15:48:38;13.20;88.60
65582;DHT22;52231;40.090;18.348;2022-12-07T15:51:08;13.10;88.70
65582;DHT22;52231;40.090;18.348;2022-12-07T15:53:55;13.10;88.80
65582;DHT22;52231;40.090;18.348;2022-12-07T15:56:25;13.00;88.90
65582;DHT22;52231;40.090;18.348;2022-12-07T15:58:59;12.90;89.20
65582;DHT22;52231;40.090;18.348;2022-12-07T16:01:27;12.90;89.20
65582;DHT22;52231;40.090;18.348;2022-12-07T16:03:57;12.80;89.40
65582;DHT22;52231;40.090;18.348;2022-12-07T16:06:29;12.90;89.60
65582;DHT22;52231;40.090;18.348;2022-12-07T16:09:00;12.80;89.80
65582;DHT22;52231;40.090;18.348;2022-12-07T16:11:52;12.80;89.90
65582;DHT22;52231;40.090;18.348;2022-12-07T16:14:22;12.80;89.90
65582;DHT22;52231;40.090;18.348;2022-12-07T16:16:57;12.80;90.10
65582;DHT22;52231;40.090;18.348;2022-12-07T16:19:25;12.70;90.20
65582;DHT22;52231;40.090;18.348;2022-12-07T16:21:54;12.60;90.20
65582;DHT22;52231;40.090;18.348;2022-12-07T16:24:26;12.60;90.10
65582;DHT22;52231;40.090;18.348;2022-12-07T16:26:56;12.50;90.20
65582;DHT22;52231;40.090;18.348;2022-12-07T16:29:24;12.50;90.40
65582;DHT22;52231;40.090;18.348;2022-12-07T16:31:53;12.40;90.50
65582;DHT22;52231;40.090;18.348;2022-12-07T16:34:21;12.40;90.60
65582;DHT22;52231;40.090;18.348;2022-12-07T16:36:49;12.50;90.80
65582;DHT22;52231;40.090;18.348;2022-12-07T16:39:33;12.40;90.90
65582;DHT22;52231;40.090;18.348;2022-12-07T16:42:02;12.30;90.70
65582;DHT22;52231;40.090;18.348;2022-12-07T16:44:30;12.30;90.60
65582;DHT22;52231;40.090;18.348;2022-12-07T16:46:59;12.20;90.60
65582;DHT22;52231;40.090;18.348;2022-12-07T16:49:28;12.20;90.70
65582;DHT22;52231;40.090;18.348;2022-12-07T16:51:57;12.20;90.80
65582;DHT22;52231;40.090;18.348;2022-12-07T16:54:51;12.20;90.80
65582;DHT22;52231;40.090;18.348;2022-12-07T16:57:20;12.30;90.90
65582;DHT22;52231;40.090;18.348;2022-12-07T16:59:51;12.40;90.80
65582;DHT22;52231;40.090;18.348;2022-12-07T17:02:22;12.40;90.80
65582;DHT22;52231;40.090;18.348;2022-12-07T17:04:51;12.40;90.80
65582;DHT22;52231;40.090;18.348;2022-12-07T17:07:19;12.30;90.70
65582;DHT22;52231;40.090;18.348;2022-12-07T17:09:47;12.30;90.60
65582;DHT22;52231;40.090;18.348;2022-12-07T17:12:17;12.20;90.40
65582;DHT22;52231;40.090;18.348;2022-12-07T17:14:46;12.10;90.40
65582;DHT22;52231;40.090;18.348;2022-12-07T17:17:33;12.10;90.30
65582;DHT22;52231;40.090;18.348;2022-12-07T17:20:02;11.90;90.30
65582;DHT22;52231;40.090;18.348;2022-12-07T17:22:31;11.90;90.30
65582;DHT22;52231;40.090;18.348;2022-12-07T17:25:00;11.80;90.30
65582;DHT22;52231;40.090;18.348;2022-12-07T17:27:29;11.80;90.20
65582;DHT22;52231;40.090;18.348;2022-12-07T17:29:58;11.60;90.20
65582;DHT22;52231;40.090;18.348;2022-12-07T17:32:26;11.60;90.40
65582;DHT22;52231;40.090;18.348;2022-12-07T17:34:54;11.60;90.50
65582;DHT22;52231;40.090;18.348;2022-12-07T17:37:23;11.60;90.60
65582;DHT22;52231;40.090;18.348;2022-12-07T17:39:54;11.50;90.60
65582;DHT22;52231;40.090;18.348;2022-12-07T17:42:26;11.50;90.60
65582;DHT22;52231;40.090;18.348;2022-12-07T17:45:13;11.50;90.70
65582;DHT22;52231;40.090;18.348;2022-12-07T17:47:41;11.40;90.60
65582;DHT22;52231;40.090;18.348;2022-12-07T17:50:10;11.30;90.70
65582;DHT22;52231;40.090;18.348;2022-12-07T17:52:43;11.30;90.80
65582;DHT22;52231;40.090;18.348;2022-12-07T17:55:30;11.30;90.80
65582;DHT22;52231;40.090;18.348;2022-12-07T17:58:05;11.30;90.90
65582;DHT22;52231;40.090;18.348;2022-12-07T18:00:34;11.30;90.70
65582;DHT22;52231;40.090;18.348;2022-12-07T18:03:06;11.20;90.70
65582;DHT22;52231;40.090;18.348;2022-12-07T18:05:59;11.10;90.90
65582;DHT22;52231;40.090;18.348;2022-12-07T18:08:28;11.10;90.90
65582;DHT22;52231;40.090;18.348;2022-12-07T18:10:59;11.10;90.80
65582;DHT22;52231;40.090;18.348;2022-12-07T18:13:29;11.00;90.80
65582;DHT22;52231;40.090;18.348;2022-12-07T18:16:15;11.00;90.90
65582;DHT22;52231;40.090;18.348;2022-12-07T18:18:48;11.00;91.10
65582;DHT22;52231;40.090;18.348;2022-12-07T18:21:22;11.10;91.30
65582;DHT22;52231;40.090;18.348;2022-12-07T18:23:53;11.20;91.40